Terminal Aerodrome Forecast
Issued by NWS

Home | Current Version | Previous Version | Text Only | Print | Product List | Glossary On
Versions: 1 2 3 4 5 6 7 8 9 10 11 12 13 14 15 16 17 18 19 20 21 22 23 24 25 26 27 28 29 30 31 32
704
FTUS41 KBOX 310105 AAA
TAFHYA
TAF AMD
KHYA 310105Z 3101/3124 21006KT P6SM OVC005
     FM310900 VRB03KT P6SM VCSH OVC015
     FM311200 13005KT 6SM BR VCSH OVC015
     FM311300 13006KT P6SM VCSH OVC015
     FM311600 12007KT P6SM OVC015
     FM311900 12008KT P6SM VCSH BKN040=

USA.gov is the U.S. government's official web portal to all federal, state and local government web resources and services.